Time;durP1;ratioP1;P1;durP2;ratioP2;P2;SDS_P1;SDS_P2;PMS_P1;PMS_P2;Temp;Humidity;BMP_temperature;BMP_pressure;BME280_temperature;BME280_humidity;BME280_pressure;Samples;Min_cycle;Max_cycle;Signal;HPM_P1;HPM_P2
2021/03/13 00:01:26;;;;;;;14.35;4.15;;;;;;;5.66;100.00;99484.44;4965310;28;20070;-53
2021/03/13 00:03:54;;;;;;;12.85;3.28;;;;;;;5.63;100.00;99488.25;4963166;28;20035;-56
2021/03/13 00:06:21;;;;;;;7.28;2.72;;;;;;;5.71;100.00;99471.50;4967004;28;20470;-55
2021/03/13 00:08:47;;;;;;;9.27;3.20;;;;;;;5.62;100.00;99465.38;4962232;28;20308;-56
2021/03/13 00:11:15;;;;;;;9.32;2.83;;;;;;;5.61;100.00;99468.19;4966490;28;20046;-56
2021/03/13 00:13:42;;;;;;;9.57;3.47;;;;;;;5.59;100.00;99465.72;4969769;28;20057;-56
2021/03/13 00:16:10;;;;;;;6.68;3.05;;;;;;;5.61;100.00;99458.41;4971163;28;20042;-56
2021/03/13 00:18:37;;;;;;;10.40;2.97;;;;;;;5.59;100.00;99449.81;4967210;28;20046;-56
2021/03/13 00:21:06;;;;;;;14.23;3.53;;;;;;;5.55;100.00;99445.03;4970765;28;20047;-54
2021/03/13 00:23:33;;;;;;;9.88;2.60;;;;;;;5.62;100.00;99438.09;4967562;28;20043;-56
2021/03/13 00:26:00;;;;;;;8.80;3.20;;;;;;;5.63;100.00;99432.63;4970799;28;20359;-56
2021/03/13 00:28:27;;;;;;;15.65;3.97;;;;;;;5.59;100.00;99412.75;4968378;28;21280;-57
2021/03/13 00:30:54;;;;;;;9.35;3.75;;;;;;;5.50;100.00;99409.28;4966823;28;20046;-56
2021/03/13 00:33:23;;;;;;;9.30;3.38;;;;;;;5.52;100.00;99401.97;4973073;28;20062;-56
2021/03/13 00:35:52;;;;;;;9.80;3.15;;;;;;;5.58;100.00;99389.09;4969265;28;20396;-56
2021/03/13 00:38:21;;;;;;;8.85;2.97;;;;;;;5.50;100.00;99392.53;4964700;28;20042;-55
2021/03/13 00:40:48;;;;;;;6.03;2.35;;;;;;;5.56;100.00;99391.91;4966162;28;20306;-54
2021/03/13 00:43:16;;;;;;;9.38;2.80;;;;;;;5.58;100.00;99389.91;4966381;28;20049;-57
2021/03/13 00:45:44;;;;;;;14.85;3.00;;;;;;;5.59;100.00;99380.16;4967242;28;20074;-56
2021/03/13 00:48:11;;;;;;;8.60;3.75;;;;;;;5.56;100.00;99367.22;4968928;28;20047;-58
2021/03/13 00:50:41;;;;;;;11.63;3.03;;;;;;;5.59;100.00;99366.91;4968211;28;20043;-58
2021/03/13 00:53:08;;;;;;;10.60;2.63;;;;;;;5.55;100.00;99352.34;4971160;28;20038;-60
2021/03/13 00:55:36;;;;;;;9.10;3.40;;;;;;;5.55;100.00;99352.34;4966162;28;20038;-59
2021/03/13 00:58:04;;;;;;;9.90;3.03;;;;;;;5.56;100.00;99343.38;4966116;28;20074;-60
2021/03/13 01:00:37;;;;;;;5.93;2.85;;;;;;;5.72;100.00;99321.38;4966048;28;20313;-60
2021/03/13 01:03:05;;;;;;;8.02;2.65;;;;;;;5.64;100.00;99320.41;4968193;28;20562;-59
2021/03/13 01:05:32;;;;;;;8.80;3.17;;;;;;;5.59;100.00;99309.47;4968198;28;20047;-60
2021/03/13 01:07:59;;;;;;;8.40;2.38;;;;;;;5.80;100.00;99293.03;4967355;28;20309;-59
2021/03/13 01:10:47;;;;;;;8.90;2.30;;;;;;;5.90;100.00;99292.00;4967508;28;20046;-59
2021/03/13 01:13:14;;;;;;;6.18;2.30;;;;;;;5.86;100.00;99302.94;4972573;28;20051;-60
2021/03/13 01:15:42;;;;;;;10.00;3.20;;;;;;;5.89;100.00;99301.78;4968421;28;20042;-59
2021/03/13 01:18:09;;;;;;;9.95;3.35;;;;;;;5.92;100.00;99292.69;4967573;28;20042;-60
2021/03/13 01:20:36;;;;;;;4.18;1.85;;;;;;;6.04;100.00;99280.75;4965962;28;20053;-60
2021/03/13 01:23:03;;;;;;;7.93;2.42;;;;;;;6.01;100.00;99265.16;4968016;28;20098;-60
2021/03/13 01:25:30;;;;;;;7.15;1.77;;;;;;;6.02;100.00;99264.19;4968727;28;20061;-60
2021/03/13 01:27:58;;;;;;;5.80;2.33;;;;;;;6.08;100.00;99252.91;4965439;28;20039;-60
2021/03/13 01:30:25;;;;;;;9.02;2.83;;;;;;;6.10;100.00;99248.25;4968304;28;20291;-60
2021/03/13 01:32:53;;;;;;;6.38;2.00;;;;;;;6.17;100.00;99251.88;4967202;28;20050;-56
2021/03/13 01:35:21;;;;;;;4.35;2.03;;;;;;;6.25;100.00;99256.31;4966622;28;20041;-60
2021/03/13 01:37:49;;;;;;;6.57;2.25;;;;;;;6.28;100.00;99239.22;4966618;28;20336;-59
2021/03/13 01:40:16;;;;;;;7.72;2.65;;;;;;;6.24;100.00;99211.41;4964006;28;20042;-60
2021/03/13 01:42:44;;;;;;;5.72;2.25;;;;;;;6.20;100.00;99214.41;4967322;28;20362;-60
2021/03/13 01:45:13;;;;;;;5.35;2.22;;;;;;;6.23;100.00;99181.41;4966239;28;20046;-60
2021/03/13 01:47:40;;;;;;;7.82;2.40;;;;;;;6.28;100.00;99192.34;4968589;28;20054;-60
2021/03/13 01:50:09;;;;;;;5.63;2.25;;;;;;;6.29;100.00;99170.09;4964024;28;20047;-60
2021/03/13 01:52:37;;;;;;;6.00;2.50;;;;;;;6.32;100.00;99158.31;4967038;28;20043;-60
2021/03/13 01:55:05;;;;;;;7.72;2.78;;;;;;;6.33;100.00;99149.38;4968687;28;20062;-60
2021/03/13 01:57:32;;;;;;;4.22;2.38;;;;;;;6.41;100.00;99161.75;4967619;28;20673;-59
2021/03/13 01:59:59;;;;;;;11.05;2.80;;;;;;;6.55;100.00;99137.94;4964880;28;20431;-59
2021/03/13 02:02:27;;;;;;;6.47;2.85;;;;;;;6.43;100.00;99159.75;4965039;28;20572;-60
2021/03/13 02:04:54;;;;;;;6.50;2.08;;;;;;;6.57;100.00;99145.72;4969209;28;20272;-59
2021/03/13 02:07:23;;;;;;;4.45;2.17;;;;;;;6.58;100.00;99128.81;4964366;28;20080;-60
2021/03/13 02:09:58;;;;;;;17.98;4.43;;;;;;;6.58;100.00;99101.44;4964882;28;20038;-58
2021/03/13 02:12:34;;;;;;;8.25;2.42;;;;;;;6.48;100.00;99118.44;4966297;28;20055;-56
2021/03/13 02:15:03;;;;;;;8.32;2.88;;;;;;;6.44;100.00;99092.47;4968658;28;20039;-56
2021/03/13 02:17:38;;;;;;;13.27;2.97;;;;;;;6.51;100.00;99075.66;4967472;28;20054;-57
2021/03/13 02:20:32;;;;;;;7.70;2.20;;;;;;;6.54;100.00;99077.94;4965155;28;20137;-60
2021/03/13 02:23:00;;;;;;;9.82;2.22;;;;;;;6.50;100.00;99076.66;4966745;28;20051;-60
2021/03/13 02:25:40;;;;;;;5.68;2.55;;;;;;;6.53;100.00;99049.78;4968081;28;20046;-60
2021/03/13 02:28:14;;;;;;;8.48;2.25;;;;;;;6.46;100.00;99053.31;4965817;28;20316;-60
2021/03/13 02:30:42;;;;;;;11.52;3.47;;;;;;;6.42;100.00;99058.19;4965769;28;20047;-59
2021/03/13 02:33:17;;;;;;;10.35;2.50;;;;;;;6.40;100.00;99044.25;4965916;28;20046;-59
2021/03/13 02:35:45;;;;;;;10.98;2.58;;;;;;;6.34;100.00;99031.72;4964801;28;20637;-60
2021/03/13 02:38:16;;;;;;;11.80;2.83;;;;;;;6.30;100.00;99035.75;4965472;28;20058;-59
2021/03/13 02:40:44;;;;;;;6.97;2.40;;;;;;;6.44;100.00;98987.22;4964043;28;20518;-59
2021/03/13 02:43:12;;;;;;;14.40;4.53;;;;;;;6.41;100.00;99021.22;4964975;28;20464;-59
2021/03/13 02:45:42;;;;;;;5.75;2.60;;;;;;;6.43;100.00;99013.91;4967456;28;20059;-59
2021/03/13 02:48:11;;;;;;;13.40;2.60;;;;;;;6.37;100.00;99007.50;4968365;28;20077;-59
2021/03/13 02:50:40;;;;;;;11.25;2.70;;;;;;;6.34;100.00;99010.53;4966324;28;20082;-59
2021/03/13 02:53:07;;;;;;;10.57;3.42;;;;;;;6.39;100.00;98989.56;4968887;28;20042;-59
2021/03/13 02:55:35;;;;;;;11.68;2.83;;;;;;;6.44;100.00;98999.66;4963217;28;20039;-59
2021/03/13 02:58:05;;;;;;;10.50;2.97;;;;;;;6.44;100.00;98976.59;4968169;28;20051;-59
2021/03/13 03:00:34;;;;;;;11.13;2.45;;;;;;;6.39;100.00;98981.63;4964091;28;20042;-59
2021/03/13 03:03:03;;;;;;;9.23;2.38;;;;;;;6.47;100.00;98973.59;4965916;28;20043;-59
2021/03/13 03:05:31;;;;;;;15.55;4.15;;;;;;;6.47;100.00;98957.69;4967020;28;20043;-59
2021/03/13 03:08:02;;;;;;;10.45;2.78;;;;;;;6.36;100.00;98964.28;4967120;28;20039;-59
2021/03/13 03:10:31;;;;;;;9.50;2.70;;;;;;;6.34;100.00;98944.25;4963562;28;20336;-60
2021/03/13 03:12:59;;;;;;;9.80;2.45;;;;;;;6.30;100.00;98940.31;4967831;28;20039;-60
2021/03/13 03:15:28;;;;;;;10.52;2.35;;;;;;;6.30;100.00;98937.66;4966949;28;20047;-61
2021/03/13 03:17:55;;;;;;;6.75;2.05;;;;;;;6.34;100.00;98923.84;4966725;28;20043;-62
2021/03/13 03:20:24;;;;;;;8.43;2.22;;;;;;;6.26;100.00;98925.75;4960669;28;20125;-61
2021/03/13 03:22:50;;;;;;;7.68;2.53;;;;;;;6.27;100.00;98914.16;4967239;28;20042;-60
2021/03/13 03:25:17;;;;;;;7.00;2.20;;;;;;;6.46;100.00;98905.63;4967129;28;20414;-61
2021/03/13 03:27:50;;;;;;;6.30;3.03;;;;;;;6.40;100.00;98887.81;4964757;28;20070;-61
2021/03/13 03:30:22;;;;;;;9.07;3.03;;;;;;;6.33;100.00;98868.34;4966265;28;20462;-61
2021/03/13 03:32:50;;;;;;;9.48;2.97;;;;;;;6.39;100.00;98843.75;4964935;28;20047;-61
2021/03/13 03:35:18;;;;;;;10.50;2.20;;;;;;;6.43;100.00;98876.84;4965971;28;20046;-61
2021/03/13 03:37:46;;;;;;;10.35;2.58;;;;;;;6.46;100.00;98852.59;4968381;28;20039;-61
2021/03/13 03:40:16;;;;;;;11.07;2.33;;;;;;;6.47;100.00;98842.84;4966474;28;20046;-60
2021/03/13 03:42:51;;;;;;;9.73;2.50;;;;;;;6.47;100.00;98841.00;4966125;28;20267;-61
2021/03/13 03:45:19;;;;;;;6.63;2.40;;;;;;;6.50;100.00;98830.03;4966658;28;20043;-61
2021/03/13 03:47:46;;;;;;;6.13;2.33;;;;;;;6.45;100.00;98824.47;4971123;28;20049;-61
2021/03/13 03:50:15;;;;;;;4.70;1.88;;;;;;;6.52;100.00;98798.84;4969100;28;20402;-61
2021/03/13 03:52:44;;;;;;;8.48;1.58;;;;;;;6.53;100.00;98805.81;4968441;28;20513;-61
2021/03/13 03:55:13;;;;;;;12.50;2.53;;;;;;;6.51;100.00;98791.09;4970762;28;20042;-61
2021/03/13 03:57:41;;;;;;;7.20;3.13;;;;;;;6.52;100.00;98785.59;4968209;28;20051;-61
2021/03/13 04:00:09;;;;;;;9.65;1.80;;;;;;;6.63;100.00;98783.44;4970046;28;20066;-61
2021/03/13 04:02:54;;;;;;;7.18;1.98;;;;;;;6.75;100.00;98781.13;4969668;28;20039;-61
2021/03/13 04:05:21;;;;;;;7.25;2.58;;;;;;;6.69;100.00;98761.47;4970084;28;20042;-61
2021/03/13 04:07:48;;;;;;;7.78;2.25;;;;;;;6.74;100.00;98756.44;4972097;28;20046;-62
2021/03/13 04:10:16;;;;;;;9.02;2.40;;;;;;;6.79;100.00;98753.22;4966056;28;20039;-61
2021/03/13 04:12:44;;;;;;;7.28;2.35;;;;;;;6.79;100.00;98735.47;4966280;28;20046;-61
2021/03/13 04:15:12;;;;;;;8.45;2.28;;;;;;;6.75;100.00;98742.16;4968781;28;20226;-60
2021/03/13 04:17:39;;;;;;;8.88;2.30;;;;;;;6.77;100.00;98752.59;4971890;28;20071;-60
2021/03/13 04:20:08;;;;;;;9.75;2.75;;;;;;;6.72;100.00;98747.84;4965960;28;20051;-60
2021/03/13 04:22:36;;;;;;;7.45;2.80;;;;;;;6.82;100.00;98719.19;4966784;28;20050;-60
2021/03/13 04:25:05;;;;;;;11.65;3.92;;;;;;;6.81;100.00;98722.84;4970718;28;20144;-62
2021/03/13 04:27:33;;;;;;;9.63;3.08;;;;;;;6.74;100.00;98710.53;4968885;28;20050;-62
2021/03/13 04:30:00;;;;;;;10.43;2.28;;;;;;;6.74;100.00;98715.84;4966899;28;20465;-62
2021/03/13 04:32:27;;;;;;;7.07;2.42;;;;;;;6.79;100.00;98731.97;4967293;28;20328;-62
2021/03/13 04:34:55;;;;;;;8.73;2.05;;;;;;;6.75;100.00;98718.28;4970111;28;20121;-62
2021/03/13 04:37:23;;;;;;;8.65;2.58;;;;;;;6.78;100.00;98723.22;4967051;28;20035;-62
2021/03/13 04:39:50;;;;;;;16.17;2.80;;;;;;;6.83;100.00;98683.69;4967981;28;20316;-62
2021/03/13 04:42:18;;;;;;;11.38;2.42;;;;;;;6.75;100.00;98717.47;4970549;28;20047;-62
2021/03/13 04:44:46;;;;;;;7.45;2.63;;;;;;;6.76;100.00;98717.25;4968962;28;20047;-63
2021/03/13 04:47:13;;;;;;;15.10;3.33;;;;;;;6.80;100.00;98710.56;4972132;28;20343;-62
2021/03/13 04:49:40;;;;;;;10.50;3.00;;;;;;;6.75;100.00;98728.91;4967687;28;20046;-62
2021/03/13 04:52:07;;;;;;;12.50;2.80;;;;;;;6.76;100.00;98735.84;4970371;28;20193;-61
2021/03/13 04:54:34;;;;;;;11.73;2.72;;;;;;;6.69;100.00;98757.00;4970754;28;20058;-61
2021/03/13 04:57:01;;;;;;;11.45;2.88;;;;;;;6.64;100.00;98775.31;4967173;28;20054;-61
2021/03/13 04:59:28;;;;;;;6.78;1.83;;;;;;;6.69;100.00;98785.34;4963438;28;20141;-61
2021/03/13 05:01:56;;;;;;;9.93;2.90;;;;;;;6.68;100.00;98791.69;4968799;28;20178;-60
2021/03/13 05:04:23;;;;;;;6.85;2.63;;;;;;;6.64;100.00;98801.03;4967556;28;20070;-60
2021/03/13 05:06:50;;;;;;;5.82;3.08;;;;;;;6.70;100.00;98797.59;4968542;28;20039;-60
2021/03/13 05:09:17;;;;;;;11.02;2.33;;;;;;;6.54;100.00;98802.13;4967114;28;20046;-59
2021/03/13 05:11:43;;;;;;;8.25;1.90;;;;;;;6.27;100.00;98802.81;4965170;28;20065;-59
2021/03/13 05:14:10;;;;;;;2.58;0.82;;;;;;;5.76;100.00;98814.94;4969102;28;20046;-60
2021/03/13 05:16:37;;;;;;;3.25;0.57;;;;;;;5.42;100.00;98803.00;4967584;28;20046;-59
2021/03/13 05:19:05;;;;;;;3.30;1.10;;;;;;;5.32;100.00;98771.47;4962009;28;20439;-59
2021/03/13 05:21:33;;;;;;;2.28;1.00;;;;;;;5.22;100.00;98751.56;4969854;28;20049;-60
2021/03/13 05:24:00;;;;;;;2.63;0.90;;;;;;;5.22;100.00;98751.56;4969007;28;20047;-59
2021/03/13 05:26:27;;;;;;;3.10;0.80;;;;;;;5.23;100.00;98763.78;4967013;28;20035;-59
2021/03/13 05:28:54;;;;;;;4.05;1.02;;;;;;;5.32;100.00;98760.88;4964301;28;20469;-59
2021/03/13 05:31:22;;;;;;;1.20;0.65;;;;;;;5.27;100.00;98773.00;4967611;28;20047;-60
2021/03/13 05:34:00;;;;;;;3.28;1.33;;;;;;;5.18;100.00;98781.00;4963373;28;20118;-60
2021/03/13 05:36:28;;;;;;;3.75;1.15;;;;;;;5.15;100.00;98789.31;4966927;28;20046;-59
2021/03/13 05:38:54;;;;;;;0.88;0.60;;;;;;;5.28;100.00;98772.03;4966782;28;20038;-59
2021/03/13 05:41:21;;;;;;;4.95;0.98;;;;;;;5.25;100.00;98782.97;4965217;28;20038;-60
2021/03/13 05:43:49;;;;;;;6.63;2.25;;;;;;;5.12;100.00;98792.31;4966382;28;20061;-60
2021/03/13 05:46:18;;;;;;;4.28;1.00;;;;;;;5.13;100.00;98756.94;4967256;28;20049;-61
2021/03/13 05:48:45;;;;;;;1.20;0.85;;;;;;;5.18;100.00;98791.59;4963034;28;20077;-60
2021/03/13 05:51:13;;;;;;;2.78;1.17;;;;;;;5.07;100.00;98772.69;4965828;28;20046;-61
2021/03/13 05:53:41;;;;;;;2.83;0.88;;;;;;;5.00;100.00;98784.00;4967034;28;20057;-60
2021/03/13 05:56:08;;;;;;;0.73;0.43;;;;;;;5.13;100.00;98771.97;4965440;28;20042;-61
2021/03/13 05:58:37;;;;;;;2.35;0.47;;;;;;;5.15;100.00;98777.91;4966593;28;20423;-60
2021/03/13 06:01:04;;;;;;;3.05;0.98;;;;;;;5.18;100.00;98773.06;4965338;28;20043;-60
2021/03/13 06:03:32;;;;;;;3.63;0.82;;;;;;;5.06;100.00;98773.69;4967343;28;20038;-60
2021/03/13 06:06:00;;;;;;;3.20;0.82;;;;;;;5.17;100.00;98778.56;4966075;28;20153;-59
2021/03/13 06:08:28;;;;;;;2.67;0.75;;;;;;;5.11;100.00;98764.22;4964707;28;20038;-59
2021/03/13 06:10:56;;;;;;;3.83;0.95;;;;;;;5.19;100.00;98776.56;4963465;28;20043;-57
2021/03/13 06:13:23;;;;;;;3.95;1.83;;;;;;;5.12;100.00;98775.63;4965502;28;20118;-58
2021/03/13 06:15:51;;;;;;;3.95;1.23;;;;;;;5.02;100.00;98770.56;4965427;28;20061;-58
2021/03/13 06:18:18;;;;;;;6.63;1.20;;;;;;;5.00;100.00;98775.22;4959742;28;20042;-56
2021/03/13 06:20:45;;;;;;;5.38;1.35;;;;;;;5.22;100.00;98786.78;4966536;28;20073;-58
2021/03/13 06:23:13;;;;;;;4.05;1.15;;;;;;;5.28;100.00;98778.13;4965074;28;20039;-58
2021/03/13 06:25:42;;;;;;;4.45;1.05;;;;;;;5.42;100.00;98768.56;4965838;28;20098;-58
2021/03/13 06:28:14;;;;;;;2.33;1.38;;;;;;;5.32;100.00;98755.59;4963642;28;20035;-58
2021/03/13 06:30:43;;;;;;;6.43;2.08;;;;;;;5.39;100.00;98760.16;4961372;28;20070;-59
2021/03/13 06:33:22;;;;;;;6.00;1.33;;;;;;;5.37;100.00;98757.69;4965240;28;20046;-58
2021/03/13 06:35:50;;;;;;;5.90;1.60;;;;;;;5.43;100.00;98759.63;4962276;28;20120;-58
2021/03/13 06:38:20;;;;;;;7.18;1.73;;;;;;;5.45;100.00;98762.09;4965877;28;20055;-58
2021/03/13 06:40:47;;;;;;;7.35;1.65;;;;;;;5.48;100.00;98785.56;4964205;28;20435;-58
2021/03/13 06:43:21;;;;;;;4.28;1.00;;;;;;;5.47;100.00;98781.25;4967357;28;20349;-59
2021/03/13 06:46:03;;;;;;;4.95;1.35;;;;;;;5.47;100.00;98779.47;4967434;28;20047;-59
2021/03/13 06:48:39;;;;;;;2.92;1.40;;;;;;;5.48;100.00;98802.25;4962983;28;20150;-57
2021/03/13 06:51:16;;;;;;;2.20;1.10;;;;;;;5.67;100.00;98793.00;4964930;28;20055;-58
2021/03/13 06:53:46;;;;;;;2.83;1.40;;;;;;;5.65;100.00;98791.53;4968245;28;20042;-57
2021/03/13 06:56:13;;;;;;;3.15;0.80;;;;;;;5.59;100.00;98792.25;4961368;28;20046;-58
2021/03/13 06:58:41;;;;;;;3.03;1.08;;;;;;;5.58;100.00;98790.59;4964805;28;20308;-59
2021/03/13 07:01:09;;;;;;;8.90;1.10;;;;;;;5.59;100.00;98781.66;4962916;28;20050;-58
2021/03/13 07:03:48;;;;;;;5.45;1.17;;;;;;;5.58;100.00;98780.81;4964919;28;20131;-57
2021/03/13 07:06:17;;;;;;;5.65;1.25;;;;;;;5.61;100.00;98779.66;4963415;28;20042;-58
2021/03/13 07:08:45;;;;;;;6.65;1.55;;;;;;;5.64;100.00;98784.59;4962668;28;20043;-58
2021/03/13 07:11:20;;;;;;;8.68;1.90;;;;;;;5.62;100.00;98792.72;4963318;28;20052;-58
2021/03/13 07:13:49;;;;;;;6.93;1.67;;;;;;;5.63;100.00;98775.81;4962584;28;20046;-58
2021/03/13 07:16:26;;;;;;;5.22;1.30;;;;;;;5.67;100.00;98763.03;4964011;28;20287;-58
2021/03/13 07:18:56;;;;;;;8.43;1.88;;;;;;;5.72;100.00;98765.97;4961314;28;20049;-58
2021/03/13 07:21:24;;;;;;;2.85;1.52;;;;;;;5.72;100.00;98786.34;4970639;28;20077;-58
2021/03/13 07:23:54;;;;;;;4.82;2.30;;;;;;;5.67;100.00;98790.34;4973011;28;20054;-58
2021/03/13 07:26:24;;;;;;;7.25;2.65;;;;;;;5.57;100.00;98789.78;4967160;28;20042;-59
2021/03/13 07:28:57;;;;;;;8.30;3.28;;;;;;;5.53;100.00;98748.78;4970855;28;20051;-59
2021/03/13 07:31:29;;;;;;;6.82;2.00;;;;;;;5.57;100.00;98800.38;4975485;28;20047;-59
2021/03/13 07:34:00;;;;;;;12.75;2.42;;;;;;;5.68;100.00;98796.47;4970652;28;20070;-58
2021/03/13 07:36:28;;;;;;;8.73;2.58;;;;;;;5.84;100.00;98796.31;4971738;28;20049;-58
2021/03/13 07:38:58;;;;;;;6.13;1.58;;;;;;;5.92;100.00;98805.97;4971240;28;21057;-59
2021/03/13 07:41:26;;;;;;;10.75;1.98;;;;;;;5.83;100.00;98802.59;4970447;28;20038;-57
2021/03/13 07:43:55;;;;;;;13.63;3.97;;;;;;;5.91;100.00;98806.16;4973690;28;20046;-58
2021/03/13 07:46:22;;;;;;;7.40;2.53;;;;;;;6.09;100.00;98808.50;4972942;28;20383;-58
2021/03/13 07:48:50;;;;;;;10.90;2.00;;;;;;;5.98;100.00;98802.66;4968690;28;20065;-58
2021/03/13 07:51:18;;;;;;;12.98;2.72;;;;;;;6.22;100.00;98802.53;4973151;28;20070;-57
2021/03/13 07:53:45;;;;;;;11.48;3.35;;;;;;;6.20;100.00;98769.09;4970542;28;20042;-58
2021/03/13 07:56:13;;;;;;;9.45;2.88;;;;;;;6.36;100.00;98793.75;4969147;28;20043;-59
2021/03/13 07:58:40;;;;;;;14.50;3.70;;;;;;;6.46;100.00;98802.22;4969659;28;20451;-58
2021/03/13 08:01:08;;;;;;;8.35;3.33;;;;;;;6.62;100.00;98810.97;4972181;28;20043;-58
2021/03/13 08:03:45;;;;;;;13.15;3.80;;;;;;;6.74;100.00;98814.78;4968585;28;20446;-57
2021/03/13 08:06:13;;;;;;;11.55;3.00;;;;;;;6.73;100.00;98821.09;4969408;28;20134;-57
2021/03/13 08:08:42;;;;;;;9.65;3.22;;;;;;;6.72;100.00;98815.00;4969026;28;20133;-58
2021/03/13 08:11:10;;;;;;;15.40;3.20;;;;;;;6.76;100.00;98828.69;4966154;28;20035;-58
2021/03/13 08:14:00;;;;;;;11.45;3.53;;;;;;;6.69;100.00;98839.25;4968516;28;20039;-58
2021/03/13 08:16:48;;;;;;;15.90;2.88;;;;;;;6.80;100.00;98839.75;4968742;28;20330;-58
2021/03/13 08:19:26;;;;;;;13.82;3.80;;;;;;;6.87;100.00;98836.16;4969532;28;20035;-57
2021/03/13 08:22:16;;;;;;;11.52;3.08;;;;;;;7.27;100.00;98838.41;4974387;28;20431;-58
2021/03/13 08:24:46;;;;;;;12.40;2.90;;;;;;;6.74;100.00;98825.41;4968346;28;20325;-58
2021/03/13 08:27:15;;;;;;;11.45;3.70;;;;;;;6.58;100.00;98836.22;4967938;28;20589;-58
2021/03/13 08:30:00;;;;;;;14.75;3.30;;;;;;;6.55;100.00;98790.50;4966375;28;20382;-58
2021/03/13 08:32:58;;;;;;;16.40;3.33;;;;;;;6.65;100.00;98834.47;4966467;28;20465;-58
2021/03/13 08:35:47;;;;;;;12.80;3.13;;;;;;;6.67;100.00;98832.47;4905825;28;20051;-58
2021/03/13 08:38:17;;;;;;;13.07;3.13;;;;;;;6.45;100.00;98815.66;4964882;28;20067;-58
2021/03/13 08:40:47;;;;;;;13.55;3.45;;;;;;;6.22;100.00;98851.06;4964159;28;20051;-58
2021/03/13 08:43:39;;;;;;;20.20;4.65;;;;;;;5.75;100.00;98860.94;4964398;28;20065;-57
2021/03/13 08:46:44;;;;;;;15.65;3.88;;;;;;;5.61;100.00;98862.56;4968340;28;20339;-57
2021/03/13 08:49:15;;;;;;;15.43;3.08;;;;;;;6.25;100.00;98873.75;4967076;28;20046;-57
2021/03/13 08:51:42;;;;;;;21.55;3.53;;;;;;;6.93;100.00;98865.63;4967136;28;20705;-59
2021/03/13 08:54:09;;;;;;;19.58;3.92;;;;;;;6.96;100.00;98858.13;4970537;28;20050;-58
2021/03/13 08:56:41;;;;;;;17.17;4.97;;;;;;;6.78;100.00;98855.06;4965381;28;20064;-57
2021/03/13 08:59:09;;;;;;;16.60;3.63;;;;;;;6.70;100.00;98843.50;4968294;28;20074;-58
2021/03/13 09:01:36;;;;;;;17.10;4.20;;;;;;;6.99;100.00;98831.19;4965806;28;20043;-59
2021/03/13 09:04:04;;;;;;;14.38;4.30;;;;;;;6.95;100.00;98856.47;4968499;28;20074;-58
2021/03/13 09:06:43;;;;;;;17.63;4.35;;;;;;;6.91;100.00;98851.72;4968238;28;20518;-57
2021/03/13 09:09:11;;;;;;;16.33;4.82;;;;;;;6.85;100.00;98878.00;4965090;28;20452;-58
2021/03/13 09:11:40;;;;;;;13.00;3.88;;;;;;;6.82;100.00;98858.94;4965246;28;20050;-59
2021/03/13 09:14:08;;;;;;;12.70;3.83;;;;;;;6.88;100.00;98859.03;4967926;28;20054;-59
2021/03/13 09:16:37;;;;;;;19.58;4.43;;;;;;;6.69;100.00;98846.34;4968299;28;20134;-59
2021/03/13 09:19:06;;;;;;;24.23;5.95;;;;;;;6.78;100.00;98866.47;4962135;28;20078;-59
2021/03/13 09:21:41;;;;;;;12.35;4.50;;;;;;;7.04;100.00;98871.25;4964240;28;20051;-59
2021/03/13 09:24:11;;;;;;;19.43;3.70;;;;;;;7.24;100.00;98854.72;4965844;28;20379;-58
2021/03/13 09:26:38;;;;;;;15.23;5.70;;;;;;;7.55;100.00;98867.66;4960021;28;20432;-59
2021/03/13 09:29:05;;;;;;;8.75;3.03;;;;;;;7.74;100.00;98825.53;4963634;28;20047;-59
2021/03/13 09:31:33;;;;;;;16.80;4.63;;;;;;;7.66;100.00;98828.31;4965735;28;20039;-59
2021/03/13 09:34:14;;;;;;;16.08;3.47;;;;;;;7.59;100.00;98873.44;4968425;28;20317;-59
2021/03/13 09:36:56;;;;;;;13.23;5.38;;;;;;;7.65;100.00;98861.22;4961669;28;20051;-58
2021/03/13 09:39:26;;;;;;;13.23;3.33;;;;;;;7.99;100.00;98868.41;4963950;28;20039;-58
2021/03/13 09:42:04;;;;;;;17.00;3.33;;;;;;;8.10;100.00;98880.34;4963206;28;20049;-58
2021/03/13 09:44:33;;;;;;;13.40;3.95;;;;;;;8.43;100.00;98877.91;4964976;28;20042;-59
2021/03/13 09:47:01;;;;;;;19.83;4.13;;;;;;;8.02;100.00;98875.19;4965866;28;20563;-59
2021/03/13 09:49:28;;;;;;;11.85;3.00;;;;;;;7.68;100.00;98859.00;4960565;28;20138;-59
2021/03/13 09:51:55;;;;;;;9.70;3.15;;;;;;;7.66;100.00;98870.84;4964720;28;20241;-58
2021/03/13 09:54:22;;;;;;;14.60;4.30;;;;;;;7.75;100.00;98869.66;4967403;28;20047;-59
2021/03/13 09:56:50;;;;;;;17.60;4.90;;;;;;;7.68;100.00;98844.88;4964905;28;20058;-59
2021/03/13 09:59:18;;;;;;;18.58;4.43;;;;;;;8.23;100.00;98875.09;4965582;28;20126;-59
2021/03/13 10:01:45;;;;;;;18.67;4.18;;;;;;;7.97;100.00;98856.31;4965797;28;20151;-59
2021/03/13 10:04:12;;;;;;;14.27;4.38;;;;;;;8.25;100.00;98872.25;4966462;28;20043;-58
2021/03/13 10:06:40;;;;;;;11.35;3.22;;;;;;;8.16;100.00;98855.63;4963142;28;20344;-58
2021/03/13 10:09:10;;;;;;;18.30;4.75;;;;;;;8.67;100.00;98838.53;4963476;28;20402;-58
2021/03/13 10:11:41;;;;;;;17.70;4.80;;;;;;;9.11;100.00;98860.38;4960625;28;20038;-58
2021/03/13 10:14:20;;;;;;;19.05;4.63;;;;;;;8.98;100.00;98820.41;4966290;28;20493;-58
2021/03/13 10:16:47;;;;;;;17.25;4.45;;;;;;;8.52;100.00;98861.78;4966442;28;20038;-58
2021/03/13 10:19:37;;;;;;;22.60;6.38;;;;;;;7.71;100.00;98804.63;4964674;28;20125;-58
2021/03/13 10:22:08;;;;;;;11.82;3.67;;;;;;;6.70;100.00;98896.56;4965872;28;20521;-59
2021/03/13 10:24:48;;;;;;;19.73;4.07;;;;;;;6.36;100.00;98875.94;4963344;28;20057;-60
2021/03/13 10:27:24;;;;;;;6.72;2.47;;;;;;;6.17;100.00;98899.34;4963890;28;20331;-59
2021/03/13 10:29:57;;;;;;;12.75;3.15;;;;;;;6.80;100.00;98912.19;4961576;28;20054;-60
2021/03/13 10:32:26;;;;;;;21.95;5.60;;;;;;;7.04;100.00;98907.59;4966188;28;20047;-59
2021/03/13 10:35:14;;;;;;;14.20;4.40;;;;;;;7.47;100.00;98890.88;4967188;28;20121;-59
2021/03/13 10:37:52;;;;;;;13.68;4.47;;;;;;;8.09;100.00;98915.94;4964156;28;20065;-58
2021/03/13 10:40:39;;;;;;;12.80;3.58;;;;;;;7.80;100.00;98923.06;4961462;28;20073;-59
2021/03/13 10:43:29;;;;;;;10.60;3.88;;;;;;;7.58;100.00;98877.94;4965998;28;20035;-58
2021/03/13 10:46:16;;;;;;;14.10;3.78;;;;;;;7.71;100.00;98839.19;4961938;28;20097;-58
2021/03/13 10:49:06;;;;;;;13.90;4.10;;;;;;;8.44;100.00;98898.19;4966400;28;20485;-58
2021/03/13 10:51:35;;;;;;;16.48;3.50;;;;;;;8.20;100.00;98895.97;4967043;28;20046;-58
2021/03/13 10:54:04;;;;;;;12.70;4.07;;;;;;;8.44;100.00;98823.69;4967104;28;20054;-58
2021/03/13 10:56:38;;;;;;;13.35;4.15;;;;;;;9.18;100.00;98905.66;4961102;28;20343;-57
2021/03/13 10:59:06;;;;;;;24.07;4.70;;;;;;;8.55;100.00;98909.31;4963243;28;20054;-58
2021/03/13 11:01:34;;;;;;;9.98;3.10;;;;;;;9.00;100.00;98880.44;4963976;28;20274;-58
2021/03/13 11:04:01;;;;;;;16.55;3.17;;;;;;;8.80;100.00;98920.25;4965472;28;20035;-58
2021/03/13 11:06:29;;;;;;;16.63;3.75;;;;;;;8.72;100.00;98856.59;4964044;28;20094;-58
2021/03/13 11:08:58;;;;;;;19.05;3.83;;;;;;;9.06;100.00;98905.44;4961697;28;20043;-58
2021/03/13 11:11:25;;;;;;;14.63;3.55;;;;;;;9.50;100.00;98888.13;4964283;28;20054;-58
2021/03/13 11:13:52;;;;;;;17.48;6.80;;;;;;;9.09;100.00;98923.69;4965020;28;20590;-58
2021/03/13 11:16:21;;;;;;;22.60;5.05;;;;;;;9.22;100.00;98931.69;4968141;28;20105;-58
2021/03/13 11:18:49;;;;;;;11.02;3.00;;;;;;;9.22;100.00;98931.69;4960467;28;20046;-59
2021/03/13 11:21:16;;;;;;;8.95;2.88;;;;;;;8.85;100.00;98893.88;4964542;28;20047;-57
2021/03/13 11:23:44;;;;;;;11.80;3.50;;;;;;;8.82;100.00;98922.72;4961457;28;20039;-57
2021/03/13 11:26:11;;;;;;;14.65;4.00;;;;;;;8.81;100.00;98924.56;4962624;28;20051;-58
2021/03/13 11:28:39;;;;;;;8.88;2.67;;;;;;;9.07;100.00;98941.69;4963754;28;20921;-57
2021/03/13 11:31:06;;;;;;;9.32;2.95;;;;;;;9.33;100.00;98924.13;4961850;28;20047;-58
2021/03/13 11:33:33;;;;;;;8.43;2.45;;;;;;;9.79;100.00;98942.06;4966272;28;20047;-57
2021/03/13 11:36:01;;;;;;;7.88;2.95;;;;;;;9.72;100.00;98936.72;4964778;28;20273;-57
2021/03/13 11:38:30;;;;;;;12.85;3.22;;;;;;;9.65;100.00;98931.38;4965667;28;20397;-57
2021/03/13 11:40:57;;;;;;;6.68;2.25;;;;;;;9.69;100.00;98949.63;4961799;28;20047;-57
2021/03/13 11:43:24;;;;;;;10.05;3.50;;;;;;;10.43;100.00;98958.50;4964385;28;20525;-60